KAOH/AOH METAR and TAF weather

Enter ICAO airport designator
Station Type Date Time Source
KAOH METAR 2019/02/23 16:53 UTC NOAA

KAOH 231653Z AUTO 11006KT 10SM OVC041 05/M01 A3004 RMK AO2 SLP179 T00501006


Station Type Date Time Source
KAOH Decoded METAR 2019/02/23 16:53 UTC NOAA

LIMA ALLEN COUNTY AIRPORT, OH, United States (KAOH) 40-42N 84-01W 296M
Feb 23, 2019 - 11:53 AM EST / 2019.02.23 1653 UTC
Wind: from the ESE (110 degrees) at 7 MPH (6 KT):0
Visibility: 10 mile(s):0
Sky conditions: overcast
Temperature: 41.0 F (5.0 C)
Dew Point: 30.9 F (-0.6 C)
Relative Humidity: 67%
Pressure (altimeter): 30.04 in. Hg (1017 hPa)
ob: KAOH 231653Z AUTO 11006KT 10SM OVC041 05/M01 A3004 RMK AO2 SLP179 T00501006
cycle: 17

Station Type Date Time Source
KAOH TAF UTC NOAA

Error!


Example: see airport list